Amarant — CQSF — position and weather

sailwx.info

Track history (hours):
 
Tides and Currents Weather Stations Pressure Air Temp Water Temp Dewpoint Dewpoint Depression Visibility Wind Speed Wind Dir Waves Ship Positions

Amarant

Last reported at 2016-May-30 10:16 UTC. Time now 2016-May-30 14:34 UTC.
Position N 55°37' E 015°22'.

Length 123 m; draft 7.2 m.

Type: Tanker. MMSI: 255623000.

Date/timePositionNaut miles runAvg speedWind from/ knotsBaromVisibWave heightAir tempDewpointWater temp
2016-May-30 10:16N 55°37' E 015°22'910.7
2016-May-30 09:28N 55°33' E 015°09'1010.8
2016-May-30 08:33N 55°28' E 014°53'1110.8
2016-May-30 07:33N 55°23' E 014°37'1111.1
2016-May-30 06:33N 55°14' E 014°24'10 9.9
2016-May-30 05:33N 55°10' E 014°09'1110.6
2016-May-30 04:33N 55°10' E 013°50'2610.6
2016-May-30 02:06N 55°12' E 013°05'610.9
2016-May-30 01:31N 55°14' E 012°54'1010.7
2016-May-30 00:33N 55°19' E 012°38'1111.4
2016-May-29 23:34N 55°30' E 012°42'8 7.6
2016-May-29 22:34N 55°37' E 012°42'1010.4
2016-May-29 21:34N 55°48' E 012°42'1110.7
2016-May-29 20:33N 55°58' E 012°38'9 9.1
2016-May-29 19:34N 56°07' E 012°32'7412.1
2016-May-29 13:27N 57°17' E 011°50'1112.6
2016-May-29 12:34N 57°27' E 011°42'1111.3
2016-May-29 11:34N 57°38' E 011°42'7 6.6
2016-May-29 10:33N 57°41' E 011°53'0 0.0
2016-May-29 00:05N 57°41' E 011°53'0 0.0
2016-May-28 23:32N 57°41' E 011°53'0 0.0
2016-May-28 22:32N 57°41' E 011°53'3 3.2
2016-May-28 21:33N 57°40' E 011°47'0 0.1
2016-May-28 20:33N 57°40' E 011°47'0 0.0
2016-May-28 19:33N 57°40' E 011°47'0 0.0
2016-May-28 18:33N 57°40' E 011°47'0 0.0
2016-May-28 17:33N 57°40' E 011°47'0 0.0
2016-May-28 16:33N 57°40' E 011°47'0 0.0
2016-May-28 15:33N 57°40' E 011°47'0 0.0
2016-May-28 14:30N 57°40' E 011°47'0 0.0
2016-May-28 13:33N 57°40' E 011°47'0 0.0
2016-May-28 12:33N 57°40' E 011°47'0 0.0
2016-May-28 11:33N 57°40' E 011°47'0 0.0
2016-May-28 10:33N 57°40' E 011°47'0 0.0
2016-May-28 09:33N 57°40' E 011°47'0 0.0
2016-May-28 08:33N 57°40' E 011°47'0 0.0
2016-May-28 07:33N 57°40' E 011°47'0 0.0
2016-May-28 06:33N 57°40' E 011°47'0 0.0
2016-May-28 05:33N 57°40' E 011°47'0 0.0
2016-May-28 04:33N 57°40' E 011°47'0 0.0
2016-May-28 03:33N 57°40' E 011°47'0 0.0
2016-May-28 02:33N 57°40' E 011°47'0 0.0
2016-May-28 01:33N 57°40' E 011°47'0 0.0
2016-May-28 00:33N 57°40' E 011°47'0 0.0
2016-May-27 23:33N 57°40' E 011°47'0 0.0
2016-May-27 22:32N 57°40' E 011°47'0 0.0
2016-May-27 21:33N 57°40' E 011°47'0 0.0
2016-May-27 20:32N 57°40' E 011°47'0 0.0
2016-May-27 19:32N 57°40' E 011°47'0 0.0
2016-May-27 18:32N 57°40' E 011°47'0 0.0
2016-May-27 17:32N 57°40' E 011°47'0 0.0
2016-May-27 16:32N 57°40' E 011°47'0 0.0
2016-May-27 15:32N 57°40' E 011°47'0 0.0
2016-May-27 14:32N 57°40' E 011°47'0 0.0
2016-May-27 13:32N 57°40' E 011°47'0 0.0
2016-May-27 12:32N 57°40' E 011°47'1 1.5
2016-May-27 11:33N 57°41' E 011°49'2 1.7
2016-May-27 10:33N 57°41' E 011°52'0 0.0
2016-May-27 09:33N 57°41' E 011°52'0 0.0
2016-May-27 08:33N 57°41' E 011°52'0 0.0
2016-May-27 07:33N 57°41' E 011°52'0 0.0
2016-May-27 06:33N 57°41' E 011°52'0 0.0
2016-May-27 05:33N 57°41' E 011°52'0 0.0
2016-May-27 04:33N 57°41' E 011°52'0 0.0
2016-May-27 03:33N 57°41' E 011°52'0 0.0
2016-May-27 02:33N 57°41' E 011°52'0 0.0
2016-May-27 01:33N 57°41' E 011°52'0 0.0
2016-May-27 00:33N 57°41' E 011°52'0 0.0
2016-May-26 23:33N 57°41' E 011°52'0 0.0
2016-May-26 22:33N 57°41' E 011°52'0 0.0
2016-May-26 21:33N 57°41' E 011°52'0 0.5
2016-May-26 20:33N 57°41' E 011°53'0 0.0
2016-May-26 04:33N 57°41' E 011°53'9 8.5
2016-May-26 03:33N 57°37' E 011°40'1111.4
2016-May-26 02:33N 57°39' E 011°19'1110.6
2016-May-26 01:33N 57°43' E 011°01'1111.4
2016-May-26 00:33N 57°47' E 010°41'26010.2
2016-May-24 23:11N 54°31' E 005°33'10 9.8
2016-May-24 22:12N 54°23' E 005°24'6 9.7
2016-May-24 21:33N 54°18' E 005°19'10 9.5
2016-May-24 20:33N 54°09' E 005°11'9 9.0
2016-May-24 19:33N 54°01' E 005°05'9 8.8
2016-May-24 18:33N 53°53' E 005°00'9 8.7
2016-May-24 17:30N 53°44' E 004°55'36 8.7
2016-May-24 13:26N 53°11' E 004°33'7 8.3
2016-May-24 12:33N 53°05' E 004°26'10 8.6
2016-May-24 11:25N 52°56' E 004°18'8 9.1
2016-May-24 10:32N 52°49' E 004°13'6610.9
2016-May-24 04:29N 51°52' E 003°20'1110.9
2016-May-24 03:30N 51°41' E 003°19'1212.9
2016-May-24 02:33N 51°30' E 003°28'9 9.0
2016-May-24 01:33N 51°26' E 003°41'9 9.2
2016-May-24 00:33N 51°22' E 003°54'6 6.1
2016-May-23 23:33N 51°22' E 004°04'8 8.5
2016-May-23 22:33N 51°21' E 004°17'0 0.0
2016-May-23 21:34N 51°21' E 004°17'3 3.3
2016-May-23 20:33N 51°18' E 004°20'3 3.1
2016-May-23 19:32N 51°15' E 004°22'0 0.0
2016-May-23 18:31N 51°15' E 004°22'0 0.0
2016-May-23 17:31N 51°15' E 004°22'0 0.0
2016-May-23 16:31N 51°15' E 004°22'0 0.0
2016-May-23 15:31N 51°15' E 004°22'0 0.0
2016-May-23 14:31N 51°15' E 004°22'0 0.0
2016-May-23 13:31N 51°15' E 004°22'0 0.0
2016-May-23 12:31N 51°15' E 004°22'0 0.0
2016-May-23 11:31N 51°15' E 004°22'0 0.0
2016-May-23 10:31N 51°15' E 004°22'0 0.0
2016-May-23 09:31N 51°15' E 004°22'0 0.0
2016-May-23 08:28N 51°15' E 004°22'0 0.0
2016-May-23 07:31N 51°15' E 004°22'0 0.0
2016-May-23 06:31N 51°15' E 004°22'0 0.0
2016-May-23 05:31N 51°15' E 004°22'0 0.0
2016-May-23 04:31N 51°15' E 004°22'0 0.0
2016-May-23 03:31N 51°15' E 004°22'0 0.0
2016-May-23 02:31N 51°15' E 004°22'0 0.0
2016-May-23 01:31N 51°15' E 004°22'0 0.0
2016-May-23 00:31N 51°15' E 004°22'0 0.0
2016-May-22 23:31N 51°15' E 004°22'0 0.0
2016-May-22 22:31N 51°15' E 004°22'0 0.0
2016-May-22 21:31N 51°15' E 004°22'0 0.0
2016-May-22 20:31N 51°15' E 004°22'1 0.7
2016-May-22 19:34N 51°15' E 004°22'2 2.3
2016-May-22 18:33N 51°17' E 004°19'8 8.3
2016-May-22 17:33N 51°24' E 004°11'8 7.5
2016-May-22 16:33N 51°26' E 003°60'9 9.4
2016-May-22 15:33N 51°21' E 003°47'1110.6
2016-May-22 14:33N 51°27' E 003°33'1211.4
2016-May-22 13:32N 51°37' E 003°22'1110.4
2016-May-22 12:28N 51°46' E 003°14'14511.3
2016-May-21 23:33N 53°59' E 004°55'1212.1
2016-May-21 22:33N 54°09' E 005°04'1211.8
2016-May-21 21:33N 54°19' E 005°16'26710.6
2016-May-20 20:23N 57°46' E 010°19'910.7
2016-May-20 19:33N 57°49' E 010°35'1110.9
2016-May-20 18:33N 57°46' E 010°55'1111.4
2016-May-20 17:33N 57°38' E 011°10'1211.8
2016-May-20 16:33N 57°29' E 011°25'1212.3
2016-May-20 15:33N 57°18' E 011°34'1312.6
2016-May-20 14:33N 57°06' E 011°42'1312.8
2016-May-20 13:33N 56°54' E 011°49'1312.6
2016-May-20 12:33N 56°42' E 011°56'1312.5
2016-May-20 11:33N 56°30' E 012°00'1312.4
2016-May-20 10:28N 56°19' E 012°15'  
Track history (hours):
 
Tides and Currents Weather Stations Pressure Air Temp Water Temp Dewpoint Dewpoint Depression Visibility Wind Speed Wind Dir Waves Ship Positions

Amarant

Last reported at 2016-May-30 10:16 UTC. Time now 2016-May-30 14:34 UTC.
Position N 55°37' E 015°22'.

Length 123 m; draft 7.2 m.

Type: Tanker. MMSI: 255623000.

Date/timePositionNaut miles runAvg speedWind from/ knotsBaromVisibWave heightAir tempDewpointWater temp
2016-May-30 10:16N 55°37' E 015°22'910.7
2016-May-30 09:28N 55°33' E 015°09'1010.8
2016-May-30 08:33N 55°28' E 014°53'1110.8
2016-May-30 07:33N 55°23' E 014°37'1111.1
2016-May-30 06:33N 55°14' E 014°24'10 9.9
2016-May-30 05:33N 55°10' E 014°09'1110.6
2016-May-30 04:33N 55°10' E 013°50'2610.6
2016-May-30 02:06N 55°12' E 013°05'610.9
2016-May-30 01:31N 55°14' E 012°54'1010.7
2016-May-30 00:33N 55°19' E 012°38'1111.4
2016-May-29 23:34N 55°30' E 012°42'8 7.6
2016-May-29 22:34N 55°37' E 012°42'1010.4
2016-May-29 21:34N 55°48' E 012°42'1110.7
2016-May-29 20:33N 55°58' E 012°38'9 9.1
2016-May-29 19:34N 56°07' E 012°32'7412.1
2016-May-29 13:27N 57°17' E 011°50'1112.6
2016-May-29 12:34N 57°27' E 011°42'1111.3
2016-May-29 11:34N 57°38' E 011°42'7 6.6
2016-May-29 10:33N 57°41' E 011°53'0 0.0
2016-May-29 00:05N 57°41' E 011°53'0 0.0
2016-May-28 23:32N 57°41' E 011°53'0 0.0
2016-May-28 22:32N 57°41' E 011°53'3 3.2
2016-May-28 21:33N 57°40' E 011°47'0 0.1
2016-May-28 20:33N 57°40' E 011°47'0 0.0
2016-May-28 19:33N 57°40' E 011°47'0 0.0
2016-May-28 18:33N 57°40' E 011°47'0 0.0
2016-May-28 17:33N 57°40' E 011°47'0 0.0
2016-May-28 16:33N 57°40' E 011°47'0 0.0
2016-May-28 15:33N 57°40' E 011°47'0 0.0
2016-May-28 14:30N 57°40' E 011°47'0 0.0
2016-May-28 13:33N 57°40' E 011°47'0 0.0
2016-May-28 12:33N 57°40' E 011°47'0 0.0
2016-May-28 11:33N 57°40' E 011°47'0 0.0
2016-May-28 10:33N 57°40' E 011°47'0 0.0
2016-May-28 09:33N 57°40' E 011°47'0 0.0
2016-May-28 08:33N 57°40' E 011°47'0 0.0
2016-May-28 07:33N 57°40' E 011°47'0 0.0
2016-May-28 06:33N 57°40' E 011°47'0 0.0
2016-May-28 05:33N 57°40' E 011°47'0 0.0
2016-May-28 04:33N 57°40' E 011°47'0 0.0
2016-May-28 03:33N 57°40' E 011°47'0 0.0
2016-May-28 02:33N 57°40' E 011°47'0 0.0
2016-May-28 01:33N 57°40' E 011°47'0 0.0
2016-May-28 00:33N 57°40' E 011°47'0 0.0
2016-May-27 23:33N 57°40' E 011°47'0 0.0
2016-May-27 22:32N 57°40' E 011°47'0 0.0
2016-May-27 21:33N 57°40' E 011°47'0 0.0
2016-May-27 20:32N 57°40' E 011°47'0 0.0
2016-May-27 19:32N 57°40' E 011°47'0 0.0
2016-May-27 18:32N 57°40' E 011°47'0 0.0
2016-May-27 17:32N 57°40' E 011°47'0 0.0
2016-May-27 16:32N 57°40' E 011°47'0 0.0
2016-May-27 15:32N 57°40' E 011°47'0 0.0
2016-May-27 14:32N 57°40' E 011°47'0 0.0
2016-May-27 13:32N 57°40' E 011°47'0 0.0
2016-May-27 12:32N 57°40' E 011°47'1 1.5
2016-May-27 11:33N 57°41' E 011°49'2 1.7
2016-May-27 10:33N 57°41' E 011°52'0 0.0
2016-May-27 09:33N 57°41' E 011°52'0 0.0
2016-May-27 08:33N 57°41' E 011°52'0 0.0
2016-May-27 07:33N 57°41' E 011°52'0 0.0
2016-May-27 06:33N 57°41' E 011°52'0 0.0
2016-May-27 05:33N 57°41' E 011°52'0 0.0
2016-May-27 04:33N 57°41' E 011°52'0 0.0
2016-May-27 03:33N 57°41' E 011°52'0 0.0
2016-May-27 02:33N 57°41' E 011°52'0 0.0
2016-May-27 01:33N 57°41' E 011°52'0 0.0
2016-May-27 00:33N 57°41' E 011°52'0 0.0
2016-May-26 23:33N 57°41' E 011°52'0 0.0
2016-May-26 22:33N 57°41' E 011°52'0 0.0
2016-May-26 21:33N 57°41' E 011°52'0 0.5
2016-May-26 20:33N 57°41' E 011°53'0 0.0
2016-May-26 04:33N 57°41' E 011°53'9 8.5
2016-May-26 03:33N 57°37' E 011°40'1111.4
2016-May-26 02:33N 57°39' E 011°19'1110.6
2016-May-26 01:33N 57°43' E 011°01'1111.4
2016-May-26 00:33N 57°47' E 010°41'26010.2
2016-May-24 23:11N 54°31' E 005°33'10 9.8
2016-May-24 22:12N 54°23' E 005°24'6 9.7
2016-May-24 21:33N 54°18' E 005°19'10 9.5
2016-May-24 20:33N 54°09' E 005°11'9 9.0
2016-May-24 19:33N 54°01' E 005°05'9 8.8
2016-May-24 18:33N 53°53' E 005°00'9 8.7
2016-May-24 17:30N 53°44' E 004°55'36 8.7
2016-May-24 13:26N 53°11' E 004°33'7 8.3
2016-May-24 12:33N 53°05' E 004°26'10 8.6
2016-May-24 11:25N 52°56' E 004°18'8 9.1
2016-May-24 10:32N 52°49' E 004°13'6610.9
2016-May-24 04:29N 51°52' E 003°20'1110.9
2016-May-24 03:30N 51°41' E 003°19'1212.9
2016-May-24 02:33N 51°30' E 003°28'9 9.0
2016-May-24 01:33N 51°26' E 003°41'9 9.2
2016-May-24 00:33N 51°22' E 003°54'6 6.1
2016-May-23 23:33N 51°22' E 004°04'8 8.5
2016-May-23 22:33N 51°21' E 004°17'0 0.0
2016-May-23 21:34N 51°21' E 004°17'3 3.3
2016-May-23 20:33N 51°18' E 004°20'3 3.1
2016-May-23 19:32N 51°15' E 004°22'0 0.0
2016-May-23 18:31N 51°15' E 004°22'0 0.0
2016-May-23 17:31N 51°15' E 004°22'0 0.0
2016-May-23 16:31N 51°15' E 004°22'0 0.0
2016-May-23 15:31N 51°15' E 004°22'0 0.0
2016-May-23 14:31N 51°15' E 004°22'0 0.0
2016-May-23 13:31N 51°15' E 004°22'0 0.0
2016-May-23 12:31N 51°15' E 004°22'0 0.0
2016-May-23 11:31N 51°15' E 004°22'0 0.0
2016-May-23 10:31N 51°15' E 004°22'0 0.0
2016-May-23 09:31N 51°15' E 004°22'0 0.0
2016-May-23 08:28N 51°15' E 004°22'0 0.0
2016-May-23 07:31N 51°15' E 004°22'0 0.0
2016-May-23 06:31N 51°15' E 004°22'0 0.0
2016-May-23 05:31N 51°15' E 004°22'0 0.0
2016-May-23 04:31N 51°15' E 004°22'0 0.0
2016-May-23 03:31N 51°15' E 004°22'0 0.0
2016-May-23 02:31N 51°15' E 004°22'0 0.0
2016-May-23 01:31N 51°15' E 004°22'0 0.0
2016-May-23 00:31N 51°15' E 004°22'0 0.0
2016-May-22 23:31N 51°15' E 004°22'0 0.0
2016-May-22 22:31N 51°15' E 004°22'0 0.0
2016-May-22 21:31N 51°15' E 004°22'0 0.0
2016-May-22 20:31N 51°15' E 004°22'1 0.7
2016-May-22 19:34N 51°15' E 004°22'2 2.3
2016-May-22 18:33N 51°17' E 004°19'8 8.3
2016-May-22 17:33N 51°24' E 004°11'8 7.5
2016-May-22 16:33N 51°26' E 003°60'9 9.4
2016-May-22 15:33N 51°21' E 003°47'1110.6
2016-May-22 14:33N 51°27' E 003°33'1211.4
2016-May-22 13:32N 51°37' E 003°22'1110.4
2016-May-22 12:28N 51°46' E 003°14'14511.3
2016-May-21 23:33N 53°59' E 004°55'1212.1
2016-May-21 22:33N 54°09' E 005°04'1211.8
2016-May-21 21:33N 54°19' E 005°16'26710.6
2016-May-20 20:23N 57°46' E 010°19'910.7
2016-May-20 19:33N 57°49' E 010°35'1110.9
2016-May-20 18:33N 57°46' E 010°55'1111.4
2016-May-20 17:33N 57°38' E 011°10'1211.8
2016-May-20 16:33N 57°29' E 011°25'1212.3
2016-May-20 15:33N 57°18' E 011°34'1312.6
2016-May-20 14:33N 57°06' E 011°42'1312.8
2016-May-20 13:33N 56°54' E 011°49'1312.6
2016-May-20 12:33N 56°42' E 011°56'1312.5
2016-May-20 11:33N 56°30' E 012°00'1312.4
2016-May-20 10:28N 56°19' E 012°15'  

Dump ship's entire track history